Time;durP1;ratioP1;P1;durP2;ratioP2;P2;SDS_P1;SDS_P2;PMS_P1;PMS_P2;Temp;Humidity;BMP_temperature;BMP_pressure;BME280_temperature;BME280_humidity;BME280_pressure;Samples;Min_cycle;Max_cycle;Signal;HPM_P1;HPM_P2
2022/11/13 00:01:21;;;;;;;40.70;25.50;;;;;;;10.05;88.10;101804.16;124449;1309;98463;-78
2022/11/13 00:04:45;;;;;;;41.40;26.00;;;;;;;10.03;87.76;101799.14;124556;1304;98228;-79
2022/11/13 00:08:10;;;;;;;44.90;26.40;;;;;;;10.04;87.52;101798.01;124424;1303;98033;-79
2022/11/13 00:11:34;;;;;;;34.00;21.00;;;;;;;10.00;87.74;101791.56;124399;1295;99150;-79
2022/11/13 00:14:58;;;;;;;37.50;21.70;;;;;;;9.98;88.04;101787.99;124410;1303;98700;-79
2022/11/13 00:18:22;;;;;;;45.20;26.70;;;;;;;9.97;87.85;101785.03;124619;1310;98033;-79
2022/11/13 00:21:46;;;;;;;41.40;25.30;;;;;;;9.96;87.76;101788.23;124676;1309;99206;-78
2022/11/13 00:25:11;;;;;;;44.60;28.00;;;;;;;9.97;87.65;101783.77;124439;1308;99105;-78
2022/11/13 00:28:35;;;;;;;46.50;27.40;;;;;;;9.98;87.85;101779.96;124441;1309;99243;-79
2022/11/13 00:32:00;;;;;;;39.70;23.60;;;;;;;9.97;87.71;101775.58;124425;1303;98088;-77
2022/11/13 00:35:24;;;;;;;44.90;25.30;;;;;;;9.94;87.80;101780.63;124468;1309;98117;-77
2022/11/13 00:38:48;;;;;;;37.50;21.80;;;;;;;9.91;88.14;101785.45;124436;1308;98248;-77
2022/11/13 00:42:13;;;;;;;42.70;26.70;;;;;;;9.91;88.03;101777.98;124517;1315;99163;-79
2022/11/13 00:45:37;;;;;;;44.90;25.90;;;;;;;9.92;88.18;101770.27;124489;1301;99180;-81
2022/11/13 00:49:02;;;;;;;49.30;29.70;;;;;;;9.94;87.86;101769.80;124587;1301;98033;-79
2022/11/13 00:52:26;;;;;;;47.70;27.90;;;;;;;9.96;87.96;101769.84;124587;1303;98070;-79
2022/11/13 00:55:51;;;;;;;43.70;27.70;;;;;;;9.94;87.83;101760.89;124605;1308;98398;-80
2022/11/13 00:59:15;;;;;;;39.20;23.90;;;;;;;9.91;88.12;101764.11;124524;1303;99107;-80
2022/11/13 01:02:39;;;;;;;45.50;25.10;;;;;;;9.88;87.72;101755.66;124513;1301;98142;-80
2022/11/13 01:06:11;;;;;;;46.90;27.80;;;;;;;9.88;88.16;101761.67;124663;1309;98817;-79
2022/11/13 01:09:34;;;;;;;;;;;;;;;9.91;87.84;101753.09;124662;1309;98040;-78
2022/11/13 01:12:57;;;;;;;;;;;;;;;9.94;88.08;101756.79;124533;1308;98789;-79
2022/11/13 01:16:24;;;;;;;43.70;26.30;;;;;;;9.95;87.93;101754.08;124473;1308;98016;-77
2022/11/13 01:19:48;;;;;;;47.10;29.00;;;;;;;9.91;87.92;101751.88;124587;1309;99104;-77
2022/11/13 01:23:13;;;;;;;42.50;24.50;;;;;;;9.86;88.02;101750.65;124399;1301;99137;-78
2022/11/13 01:26:37;;;;;;;46.40;24.60;;;;;;;9.86;88.16;101747.63;124531;1309;98111;-78
2022/11/13 01:30:01;;;;;;;52.20;29.50;;;;;;;9.87;88.08;101750.56;124519;1308;98149;-77
2022/11/13 01:33:25;;;;;;;42.20;26.80;;;;;;;9.88;88.12;101749.80;124457;1298;98490;-78
2022/11/13 01:36:50;;;;;;;48.10;29.30;;;;;;;9.88;88.04;101743.20;124496;1303;98054;-78
2022/11/13 01:40:16;;;;;;;46.70;29.20;;;;;;;9.89;88.15;101743.64;124390;1295;98015;-77
2022/11/13 01:43:40;;;;;;;50.30;31.00;;;;;;;9.89;88.07;101743.29;124407;1309;98044;-77
2022/11/13 01:47:05;;;;;;;48.20;25.80;;;;;;;9.87;87.88;101738.52;124601;1302;99098;-77
2022/11/13 01:50:29;;;;;;;44.30;25.50;;;;;;;9.84;88.02;101743.13;124539;1309;98116;-78
2022/11/13 01:53:55;;;;;;;38.50;22.20;;;;;;;9.83;88.19;101743.00;124560;1301;98014;-79
2022/11/13 01:57:21;;;;;;;47.20;28.60;;;;;;;9.85;88.22;101744.30;124492;1308;98118;-78
2022/11/13 02:00:45;;;;;;;52.40;31.00;;;;;;;9.85;87.95;101741.83;124438;1308;98697;-77
2022/11/13 02:04:09;;;;;;;49.80;29.50;;;;;;;9.86;88.08;101738.88;124330;1309;99163;-78
2022/11/13 02:07:34;;;;;;;45.90;27.70;;;;;;;9.83;87.98;101738.36;124564;1305;99324;-77
2022/11/13 02:10:58;;;;;;;44.70;25.00;;;;;;;9.80;88.18;101739.30;124457;1309;99208;-78
2022/11/13 02:14:25;;;;;;;41.80;24.20;;;;;;;9.78;88.26;101735.92;124377;1309;98147;-78
2022/11/13 02:17:52;;;;;;;39.80;25.10;;;;;;;9.79;88.28;101736.86;124449;1309;99143;-78
2022/11/13 02:21:29;;;;;;;47.30;27.40;;;;;;;9.81;88.01;101735.52;124602;1311;98068;-79
2022/11/13 02:24:55;;;;;;;48.20;28.50;;;;;;;9.82;87.96;101732.21;124476;1309;99093;-78
2022/11/13 02:28:20;;;;;;;49.90;29.90;;;;;;;9.83;88.07;101731.83;124362;1308;98807;-78
2022/11/13 02:31:44;;;;;;;48.10;28.90;;;;;;;9.82;88.03;101727.95;124474;1308;98827;-78
2022/11/13 02:35:09;;;;;;;43.70;24.30;;;;;;;9.79;88.02;101727.80;124603;1309;98047;-79
2022/11/13 02:38:34;;;;;;;40.60;23.70;;;;;;;9.75;88.11;101727.61;124609;1307;99179;-78
2022/11/13 02:41:59;;;;;;;44.30;27.10;;;;;;;9.76;88.56;101725.41;124611;1309;98789;-78
2022/11/13 02:45:23;;;;;;;44.90;26.20;;;;;;;9.79;88.34;101724.44;124302;1301;283499;-79
2022/11/13 02:48:48;;;;;;;46.50;27.00;;;;;;;9.81;88.10;101718.79;124421;1308;98064;-78
2022/11/13 02:52:12;;;;;;;44.50;26.50;;;;;;;9.80;88.05;101721.22;124548;1309;98048;-78
2022/11/13 02:55:36;;;;;;;44.20;27.50;;;;;;;9.79;88.04;101725.71;124455;1301;98245;-77
2022/11/13 02:59:00;;;;;;;38.20;22.90;;;;;;;9.76;88.24;101724.13;124421;1302;99185;-78
2022/11/13 03:02:25;;;;;;;32.70;19.50;;;;;;;9.73;88.03;101724.20;124393;1302;98080;-77
2022/11/13 03:05:51;;;;;;;41.40;24.50;;;;;;;9.72;88.03;101721.24;124439;1309;98807;-78
2022/11/13 03:09:15;;;;;;;42.00;23.90;;;;;;;9.75;88.39;101720.11;124492;1303;98837;-79
2022/11/13 03:12:40;;;;;;;41.40;26.00;;;;;;;9.78;88.07;101721.89;124638;1295;99135;-79
2022/11/13 03:16:10;;;;;;;46.00;25.80;;;;;;;9.78;88.18;101722.77;124623;1309;99031;-80
2022/11/13 03:19:34;;;;;;;44.40;26.20;;;;;;;9.76;88.27;101721.83;124529;1302;99196;-79
2022/11/13 03:22:58;;;;;;;36.70;20.70;;;;;;;9.71;87.97;101720.41;124599;1309;98521;-78
2022/11/13 03:26:23;;;;;;;38.20;21.30;;;;;;;9.70;88.05;101722.50;124454;1315;99191;-79
2022/11/13 03:29:47;;;;;;;44.50;25.30;;;;;;;9.70;88.08;101721.38;124579;1309;98068;-79
2022/11/13 03:33:11;;;;;;;40.50;24.00;;;;;;;9.73;88.19;101723.27;124656;1309;98026;-79
2022/11/13 03:36:35;;;;;;;40.30;24.70;;;;;;;9.76;88.06;101723.59;124507;1296;98019;-77
2022/11/13 03:40:00;;;;;;;41.10;26.10;;;;;;;9.76;88.05;101726.83;124448;1302;99249;-77
2022/11/13 03:43:24;;;;;;;43.20;26.10;;;;;;;9.74;88.04;101728.72;124360;1318;98019;-77
2022/11/13 03:46:48;;;;;;;47.20;24.60;;;;;;;9.71;88.11;101723.48;124436;1309;98817;-77
2022/11/13 03:50:13;;;;;;;39.90;22.50;;;;;;;9.68;88.15;101721.69;124411;1309;98100;-78
2022/11/13 03:53:37;;;;;;;43.60;25.40;;;;;;;9.67;88.22;101718.23;124465;1308;98022;-77
2022/11/13 03:57:01;;;;;;;42.20;25.80;;;;;;;9.66;88.19;101720.80;124464;1309;98155;-77
2022/11/13 04:00:25;;;;;;;46.60;27.80;;;;;;;9.69;88.28;101718.95;124493;1301;98059;-78
2022/11/13 04:03:50;;;;;;;45.00;26.40;;;;;;;9.71;87.96;101718.86;124556;1309;98619;-78
2022/11/13 04:07:14;;;;;;;48.80;28.80;;;;;;;9.69;87.93;101716.11;124410;1303;99098;-78
2022/11/13 04:10:38;;;;;;;44.30;25.10;;;;;;;9.66;88.13;101718.69;124593;1302;98843;-78
2022/11/13 04:14:02;;;;;;;38.00;20.80;;;;;;;9.63;88.33;101719.90;124504;1309;99071;-78
2022/11/13 04:17:27;;;;;;;45.40;26.20;;;;;;;9.63;88.10;101725.45;124578;1309;98038;-78
2022/11/13 04:20:51;;;;;;;45.70;25.10;;;;;;;9.65;88.11;101725.34;124601;1303;99066;-78
2022/11/13 04:24:16;;;;;;;47.20;27.40;;;;;;;9.66;87.98;101723.98;124542;1309;98062;-78
2022/11/13 04:27:41;;;;;;;47.00;27.70;;;;;;;9.67;88.10;101722.50;124539;1302;98410;-78
2022/11/13 04:31:06;;;;;;;43.70;26.50;;;;;;;9.64;88.18;101723.95;124549;1309;99200;-78
2022/11/13 04:34:30;;;;;;;44.60;25.40;;;;;;;9.60;87.87;101724.91;124593;1295;98004;-78
2022/11/13 04:37:54;;;;;;;43.80;23.20;;;;;;;9.58;87.97;101724.95;124435;1309;98061;-77
2022/11/13 04:45:01;;;;;;;52.40;30.10;;;;;;;9.60;88.19;101718.73;124508;1309;98788;-78
2022/11/13 04:48:25;;;;;;;52.00;28.90;;;;;;;9.62;88.01;101710.97;124494;1308;98049;-77
2022/11/13 04:51:49;;;;;;;50.30;28.60;;;;;;;9.61;88.28;101711.17;124472;1302;98010;-78
2022/11/13 04:55:14;;;;;;;45.80;27.20;;;;;;;9.59;88.12;101713.30;124386;1303;99163;-78
2022/11/13 04:58:38;;;;;;;42.10;23.30;;;;;;;9.56;88.07;101711.02;124522;1301;98785;-78
2022/11/13 05:02:02;;;;;;;42.40;22.90;;;;;;;9.54;88.03;101707.47;124465;1302;98135;-78
2022/11/13 05:05:27;;;;;;;43.80;24.50;;;;;;;9.55;88.03;101709.15;124403;1318;98057;-78
2022/11/13 05:08:51;;;;;;;49.50;27.20;;;;;;;9.57;88.15;101712.77;124528;1307;98506;-78
2022/11/13 05:12:15;;;;;;;46.70;26.00;;;;;;;9.58;87.93;101710.73;124434;1302;98024;-79
2022/11/13 05:15:40;;;;;;;50.20;27.60;;;;;;;9.59;88.06;101716.88;124685;1295;99185;-78
2022/11/13 05:19:05;;;;;;;48.10;27.70;;;;;;;9.58;87.81;101714.63;124505;1303;98053;-78
2022/11/13 05:22:29;;;;;;;47.10;24.50;;;;;;;9.56;88.00;101718.69;124907;1309;99104;-78
2022/11/13 05:26:00;;;;;;;41.20;21.80;;;;;;;9.54;87.78;101720.58;124423;1302;98052;-78
2022/11/13 05:29:25;;;;;;;42.50;23.70;;;;;;;9.54;87.96;101724.15;124508;1302;99096;-78
2022/11/13 05:32:49;;;;;;;48.80;27.10;;;;;;;9.57;88.18;101723.57;124602;1302;99175;-78
2022/11/13 05:36:16;;;;;;;45.20;25.70;;;;;;;9.59;87.87;101728.08;124695;1301;98827;-79
2022/11/13 05:39:40;;;;;;;45.20;25.50;;;;;;;9.58;87.72;101730.41;124712;1302;98030;-78
2022/11/13 05:43:05;;;;;;;43.20;25.80;;;;;;;9.55;88.12;101736.34;124576;1308;98030;-78
2022/11/13 05:46:30;;;;;;;36.00;19.60;;;;;;;9.53;87.79;101738.08;124596;1309;98052;-78
2022/11/13 05:49:54;;;;;;;38.90;20.70;;;;;;;9.52;87.99;101733.69;124626;1309;98814;-78
2022/11/13 05:53:18;;;;;;;45.10;19.30;;;;;;;9.55;87.97;101739.16;124486;1302;98116;-78
2022/11/13 05:56:42;;;;;;;42.20;24.10;;;;;;;9.59;87.97;101739.23;124701;1303;98061;-78
2022/11/13 06:00:09;;;;;;;44.80;25.50;;;;;;;9.63;87.94;101738.63;124638;1303;98840;-81
2022/11/13 06:03:33;;;;;;;44.20;24.40;;;;;;;9.61;87.89;101740.70;124694;1309;99180;-78
2022/11/13 06:06:57;;;;;;;44.10;24.50;;;;;;;9.59;87.96;101736.02;124788;1304;98152;-80
2022/11/13 06:10:21;;;;;;;38.00;20.80;;;;;;;9.56;87.74;101737.53;124660;1309;98691;-79
2022/11/13 06:13:46;;;;;;;36.30;19.80;;;;;;;9.52;87.86;101742.55;124711;1301;101440;-79
2022/11/13 06:17:10;;;;;;;42.00;23.60;;;;;;;9.53;87.89;101749.11;124742;1308;98017;-80
2022/11/13 06:20:36;;;;;;;38.60;22.30;;;;;;;9.55;87.90;101745.70;124607;1309;98040;-79
2022/11/13 06:24:01;;;;;;;41.10;23.70;;;;;;;9.60;87.81;101750.52;124732;1302;99100;-78
2022/11/13 06:27:27;;;;;;;41.40;24.00;;;;;;;9.61;87.83;101750.63;124724;1302;98061;-79
2022/11/13 06:30:51;;;;;;;36.90;21.40;;;;;;;9.61;87.76;101755.80;124687;1301;98056;-80
2022/11/13 06:34:16;;;;;;;34.20;17.60;;;;;;;9.58;87.94;101752.83;124726;1302;98824;-80
2022/11/13 06:37:40;;;;;;;34.50;18.90;;;;;;;9.58;87.82;101755.80;124704;1309;99185;-81
2022/11/13 06:41:05;;;;;;;32.40;18.80;;;;;;;9.61;88.16;101756.52;124799;1302;98133;-80
2022/11/13 06:44:29;;;;;;;37.10;20.20;;;;;;;9.65;87.96;101755.91;124776;1309;98077;-78
2022/11/13 06:47:55;;;;;;;38.10;20.70;;;;;;;9.72;87.59;101764.41;124634;1295;98683;-80
2022/11/13 06:51:21;;;;;;;34.00;19.50;;;;;;;9.76;87.43;101766.27;124697;1308;98096;-79
2022/11/13 06:54:45;;;;;;;35.70;20.20;;;;;;;9.80;87.59;101768.13;124789;1302;99306;-81
2022/11/13 06:58:09;;;;;;;36.20;20.70;;;;;;;9.80;87.74;101767.02;124526;1301;98782;-79
2022/11/13 07:01:33;;;;;;;27.20;15.30;;;;;;;9.80;87.63;101768.07;124644;1307;98134;-79
2022/11/13 07:04:57;;;;;;;27.10;15.00;;;;;;;9.83;87.87;101770.20;124850;1302;99204;-80
2022/11/13 07:08:22;;;;;;;31.80;18.90;;;;;;;9.90;87.54;101773.83;124837;1301;99097;-78
2022/11/13 07:11:46;;;;;;;30.10;18.00;;;;;;;9.99;87.51;101774.58;124748;1309;98049;-77
2022/11/13 07:15:12;;;;;;;30.10;17.30;;;;;;;10.09;87.36;101771.56;124782;1309;98028;-80
2022/11/13 07:18:36;;;;;;;31.90;18.50;;;;;;;10.14;87.47;101768.64;124639;1302;99059;-79
2022/11/13 07:22:00;;;;;;;29.00;17.70;;;;;;;10.21;87.49;101772.96;124900;1309;98778;-79
2022/11/13 07:25:25;;;;;;;25.90;14.80;;;;;;;10.22;87.22;101776.26;124974;1303;98442;-82
2022/11/13 07:28:50;;;;;;;23.50;12.50;;;;;;;10.21;87.01;101775.25;124826;1309;99179;-80
2022/11/13 07:32:14;;;;;;;26.20;16.40;;;;;;;10.20;87.12;101777.43;124783;1301;98849;-77
2022/11/13 07:35:39;;;;;;;26.70;16.70;;;;;;;10.26;87.43;101776.86;124763;1301;98051;-78
2022/11/13 07:39:03;;;;;;;27.40;16.90;;;;;;;10.32;87.16;101776.08;124729;1303;99100;-76
2022/11/13 07:42:28;;;;;;;29.20;17.00;;;;;;;10.36;86.95;101773.52;125202;1303;98068;-83
2022/11/13 07:45:54;;;;;;;29.40;17.20;;;;;;;10.35;86.69;101770.34;125003;1308;98175;-78
2022/11/13 07:49:18;;;;;;;28.10;16.60;;;;;;;10.29;86.98;101765.27;124752;1295;98837;-79
2022/11/13 07:52:42;;;;;;;24.10;13.30;;;;;;;10.25;87.16;101766.09;124721;1306;101581;-80
2022/11/13 07:56:08;;;;;;;25.00;13.40;;;;;;;10.24;86.93;101768.11;124709;1302;98111;-78
2022/11/13 07:59:32;;;;;;;23.90;14.10;;;;;;;10.28;86.72;101767.48;124738;1302;99192;-79
2022/11/13 08:03:00;;;;;;;23.30;14.60;;;;;;;10.29;86.85;101759.95;124863;1307;98015;-79
2022/11/13 08:06:26;;;;;;;30.10;16.50;;;;;;;10.31;86.68;101766.38;124695;1308;98114;-79
2022/11/13 08:09:51;;;;;;;29.60;15.90;;;;;;;10.33;86.73;101765.39;124652;1309;98054;-78
2022/11/13 08:13:15;;;;;;;24.30;14.10;;;;;;;10.35;86.76;101771.08;124538;1309;99228;-77
2022/11/13 08:16:39;;;;;;;22.50;12.90;;;;;;;10.39;86.65;101769.66;124635;1303;98023;-77
2022/11/13 08:20:04;;;;;;;19.80;10.60;;;;;;;10.40;86.41;101769.98;124593;1301;98015;-77
2022/11/13 08:23:28;;;;;;;15.90;8.80;;;;;;;10.39;86.49;101768.81;124636;1298;98019;-77
2022/11/13 08:26:52;;;;;;;16.70;10.60;;;;;;;10.44;86.72;101763.28;124548;1295;99291;-76
2022/11/13 08:30:18;;;;;;;20.00;11.10;;;;;;;10.51;86.32;101762.61;124714;1302;99068;-77
2022/11/13 08:33:43;;;;;;;16.20;9.40;;;;;;;10.53;86.17;101762.62;124592;1302;98794;-78
2022/11/13 08:37:07;;;;;;;15.60;9.90;;;;;;;10.54;86.05;101755.56;124608;1301;99192;-78
2022/11/13 08:40:31;;;;;;;34.00;16.20;;;;;;;10.53;85.65;101755.25;124532;1303;98107;-78
2022/11/13 08:43:56;;;;;;;23.60;14.00;;;;;;;10.52;85.73;101753.77;124653;1303;99179;-77
2022/11/13 08:47:20;;;;;;;17.00;9.60;;;;;;;10.51;85.64;101756.00;124541;1302;99294;-76
2022/11/13 08:50:44;;;;;;;15.70;9.70;;;;;;;10.50;85.68;101757.12;124487;1309;99214;-76
2022/11/13 08:54:09;;;;;;;15.60;9.10;;;;;;;10.55;85.54;101760.50;124528;1295;99195;-76
2022/11/13 08:57:33;;;;;;;14.20;8.90;;;;;;;10.63;85.66;101764.65;124523;1309;98064;-78
2022/11/13 09:01:03;;;;;;;12.60;7.90;;;;;;;10.69;85.35;101760.33;124513;1303;99174;-75
2022/11/13 09:04:27;;;;;;;13.40;8.50;;;;;;;10.72;85.20;101764.23;124516;1302;98882;-78
2022/11/13 09:07:55;;;;;;;15.40;9.70;;;;;;;10.70;85.14;101767.03;124642;1295;98382;-77
2022/11/13 09:11:21;;;;;;;18.70;11.70;;;;;;;10.61;85.38;101763.04;124510;1295;98131;-80
2022/11/13 09:14:45;;;;;;;17.70;11.40;;;;;;;10.58;85.20;101756.48;124591;1301;98541;-80
2022/11/13 09:18:11;;;;;;;16.60;9.10;;;;;;;10.57;84.93;101748.06;124676;1302;99208;-80
2022/11/13 09:21:35;;;;;;;16.30;9.00;;;;;;;10.50;84.87;101743.21;124690;1301;99178;-78
2022/11/13 09:24:59;;;;;;;14.80;9.30;;;;;;;10.50;84.58;101748.79;124574;1302;98053;-76
2022/11/13 09:28:23;;;;;;;15.70;8.90;;;;;;;10.52;84.59;101750.55;124576;1301;99175;-75
2022/11/13 09:31:48;;;;;;;14.60;9.20;;;;;;;10.55;84.56;101748.77;124681;1309;98107;-80
2022/11/13 09:35:13;;;;;;;14.10;8.40;;;;;;;10.54;84.73;101751.14;124745;1309;98046;-81
2022/11/13 09:38:37;;;;;;;27.40;13.10;;;;;;;10.53;84.36;101744.96;124600;1300;98690;-78
2022/11/13 09:42:11;;;;;;;17.50;9.20;;;;;;;10.52;84.13;101739.05;124567;1309;98824;-78
2022/11/13 09:45:35;;;;;;;13.80;8.50;;;;;;;10.49;84.34;101738.72;124777;1301;98891;-77
2022/11/13 09:49:04;;;;;;;14.50;7.70;;;;;;;10.46;83.91;101734.66;124725;1296;98021;-77
2022/11/13 09:52:34;;;;;;;12.90;7.30;;;;;;;10.41;84.35;101728.59;124923;1302;97968;-77
2022/11/13 09:56:08;;;;;;;12.80;8.00;;;;;;;10.43;84.62;101726.73;124605;1302;98063;-77
2022/11/13 09:59:39;;;;;;;11.10;7.30;;;;;;;10.48;84.31;101723.83;124574;1302;99228;-77
2022/11/13 10:03:25;;;;;;;14.80;8.30;;;;;;;10.52;84.38;101723.71;124603;1308;98122;-79
2022/11/13 10:07:05;;;;;;;12.70;7.90;;;;;;;10.56;84.16;101717.36;124982;1308;98002;-79
2022/11/13 10:10:47;;;;;;;11.80;7.30;;;;;;;10.58;84.05;101712.02;124832;1295;98913;-78
2022/11/13 10:14:18;;;;;;;10.60;6.50;;;;;;;10.68;83.57;101710.44;124652;1307;98100;-78
2022/11/13 10:17:47;;;;;;;10.60;6.60;;;;;;;10.76;83.55;101705.33;124750;1308;98764;-79
2022/11/13 10:21:27;;;;;;;11.80;6.70;;;;;;;10.79;83.18;101703.29;124732;1302;98060;-78
2022/11/13 10:24:54;;;;;;;12.30;6.50;;;;;;;10.83;83.38;101703.55;124769;1303;98011;-80
2022/11/13 10:28:22;;;;;;;14.60;9.00;;;;;;;10.89;83.43;101699.33;124852;1298;99096;-79
2022/11/13 10:31:49;;;;;;;13.50;8.20;;;;;;;10.97;83.11;101693.14;124625;1299;98026;-78
2022/11/13 10:35:28;;;;;;;12.50;8.00;;;;;;;10.99;82.95;101686.42;124586;1309;98054;-80
2022/11/13 10:38:59;;;;;;;13.40;8.50;;;;;;;11.06;83.14;101679.50;124676;1303;98680;-78
2022/11/13 10:42:27;;;;;;;13.10;8.00;;;;;;;11.14;83.24;101672.60;124808;1302;98804;-78
2022/11/13 10:45:59;;;;;;;12.90;7.70;;;;;;;11.16;82.94;101672.98;124612;1302;99201;-78
2022/11/13 10:49:28;;;;;;;13.40;8.10;;;;;;;11.19;82.84;101674.85;124676;1303;99332;-80
2022/11/13 10:52:55;;;;;;;13.60;7.60;;;;;;;11.17;82.92;101675.38;124822;1301;98999;-79
2022/11/13 10:56:28;;;;;;;13.50;7.50;;;;;;;11.13;82.71;101673.77;124638;1302;99071;-80
2022/11/13 10:59:52;;;;;;;11.50;7.30;;;;;;;11.09;82.75;101675.69;124780;1302;98062;-80
2022/11/13 11:03:18;;;;;;;12.10;7.50;;;;;;;11.13;82.66;101675.73;124785;1301;98190;-80
2022/11/13 11:06:43;;;;;;;12.00;7.90;;;;;;;11.14;83.02;101680.83;124710;1307;98506;-80
2022/11/13 11:10:19;;;;;;;13.40;7.80;;;;;;;11.13;82.35;101682.37;124770;1301;99221;-80
2022/11/13 11:13:43;;;;;;;12.70;7.60;;;;;;;11.13;82.39;101682.85;124896;1302;98084;-80
2022/11/13 11:17:11;;;;;;;13.50;8.50;;;;;;;11.12;82.60;101684.34;124798;1301;99067;-79
2022/11/13 11:20:47;;;;;;;13.60;8.50;;;;;;;11.12;82.53;101681.54;124855;1303;98152;-82
2022/11/13 11:24:19;;;;;;;12.90;8.00;;;;;;;11.08;82.23;101672.94;124893;1308;98866;-81
2022/11/13 11:27:47;;;;;;;13.70;8.50;;;;;;;11.05;82.15;101670.48;124567;1302;98046;-80
2022/11/13 11:31:20;;;;;;;13.60;7.80;;;;;;;11.07;82.20;101670.91;124652;1303;99211;-80
2022/11/13 11:34:45;;;;;;;;;;;;;;;11.04;81.82;101668.26;124676;1303;99066;-78
2022/11/13 11:38:16;;;;;;;13.80;7.60;;;;;;;11.02;82.01;101668.94;124624;1309;98118;-76
2022/11/13 11:41:48;;;;;;;12.50;7.90;;;;;;;11.02;81.99;101666.28;124597;1303;98141;-79
2022/11/13 11:45:15;;;;;;;;;;;;;;;10.97;82.17;101671.27;124613;1309;98807;-77
2022/11/13 11:48:40;;;;;;;8.10;5.50;;;;;;;10.92;82.06;101675.20;124509;1301;98786;-76
2022/11/13 11:52:21;;;;;;;11.50;7.20;;;;;;;10.90;81.96;101674.13;124674;1295;99080;-76
2022/11/13 11:56:08;;;;;;;13.40;7.00;;;;;;;10.90;82.04;101675.05;124561;1309;98634;-81
2022/11/13 11:59:53;;;;;;;13.20;7.90;;;;;;;10.89;81.72;101675.34;124834;1303;98308;-78
2022/11/13 12:03:55;;;;;;;12.00;7.40;;;;;;;10.88;81.84;101675.17;124755;1301;99177;-80
2022/11/13 12:07:39;;;;;;;13.10;7.70;;;;;;;10.86;81.89;101676.45;124935;1306;98031;-81
2022/11/13 12:11:14;;;;;;;13.80;8.00;;;;;;;10.80;81.72;101668.86;124584;1301;99191;-79
2022/11/13 12:14:48;;;;;;;13.00;7.90;;;;;;;10.72;81.91;101665.27;124712;1309;98066;-82
2022/11/13 12:18:22;;;;;;;14.80;8.00;;;;;;;10.66;81.71;101662.36;124787;1301;98052;-80
2022/11/13 12:21:54;;;;;;;12.50;6.80;;;;;;;10.55;81.67;101659.08;124712;1302;98116;-80
2022/11/13 12:25:24;;;;;;;10.90;6.20;;;;;;;10.51;82.06;101655.85;124616;1303;98033;-81
2022/11/13 12:28:55;;;;;;;12.00;7.30;;;;;;;10.52;81.73;101649.55;124785;1309;99218;-79
2022/11/13 12:32:32;;;;;;;10.60;7.00;;;;;;;10.56;81.86;101649.36;124687;1303;98821;-79
2022/11/13 12:35:58;;;;;;;12.40;7.60;;;;;;;10.62;81.53;101645.17;125069;1309;98029;-79
2022/11/13 12:39:41;;;;;;;12.80;7.40;;;;;;;10.65;81.71;101643.68;125125;1303;98808;-79
2022/11/13 12:43:27;;;;;;;14.30;8.10;;;;;;;10.65;81.77;101638.55;124878;1299;98053;-79
2022/11/13 12:46:53;;;;;;;14.90;8.70;;;;;;;10.62;81.59;101638.78;124946;1309;98013;-77
2022/11/13 12:50:27;;;;;;;13.80;8.30;;;;;;;10.53;81.68;101632.85;124794;1303;98052;-79
2022/11/13 12:53:53;;;;;;;13.20;7.80;;;;;;;10.48;81.70;101628.26;124720;1303;98132;-78
2022/11/13 12:57:24;;;;;;;16.50;10.00;;;;;;;10.46;81.70;101625.83;124899;1301;98810;-78
2022/11/13 13:00:56;;;;;;;14.70;8.30;;;;;;;10.43;81.70;101628.71;124681;1308;99205;-80
2022/11/13 13:04:42;;;;;;;14.50;8.20;;;;;;;10.46;81.98;101625.78;124754;1303;98776;-80
2022/11/13 13:08:21;;;;;;;12.60;7.40;;;;;;;10.47;81.97;101625.56;124888;1301;98152;-79
2022/11/13 13:12:02;;;;;;;12.30;7.70;;;;;;;10.45;81.63;101629.80;124946;1295;98038;-80
2022/11/13 13:15:36;;;;;;;13.10;8.10;;;;;;;10.38;81.39;101627.25;124987;1309;98149;-79
2022/11/13 13:19:27;;;;;;;13.10;7.60;;;;;;;10.30;81.56;101617.39;124841;1309;98167;-80
2022/11/13 13:22:59;;;;;;;14.00;7.60;;;;;;;10.22;81.76;101614.54;125084;1309;98127;-80
2022/11/13 13:26:25;;;;;;;13.30;8.00;;;;;;;10.22;81.56;101612.29;124762;1308;99196;-79
2022/11/13 13:29:49;;;;;;;12.30;8.30;;;;;;;10.22;81.69;101611.05;124734;1301;99145;-80
2022/11/13 13:33:26;;;;;;;12.70;8.00;;;;;;;10.21;81.46;101607.34;124726;1301;98050;-79
2022/11/13 13:37:01;;;;;;;11.40;6.70;;;;;;;10.22;81.72;101605.33;124888;1302;99189;-78
2022/11/13 13:40:35;;;;;;;12.20;6.90;;;;;;;10.25;81.66;101602.99;124675;1302;99166;-78
2022/11/13 13:44:17;;;;;;;12.80;8.10;;;;;;;10.27;81.56;101601.64;124540;1309;98053;-78
2022/11/13 13:47:45;;;;;;;12.50;7.20;;;;;;;10.23;81.51;101599.02;124610;1302;99088;-78
2022/11/13 13:51:26;;;;;;;12.40;7.30;;;;;;;10.19;81.41;101598.77;124559;1308;98052;-80
2022/11/13 13:54:50;;;;;;;11.70;7.60;;;;;;;10.13;81.47;101592.00;124629;1302;98018;-80
2022/11/13 13:58:19;;;;;;;12.50;7.10;;;;;;;10.02;81.36;101594.58;124677;1311;99079;-81
2022/11/13 14:01:57;;;;;;;10.90;6.80;;;;;;;9.98;81.68;101595.09;124698;1302;98654;-81
2022/11/13 14:05:30;;;;;;;14.80;9.10;;;;;;;9.96;81.92;101592.18;124920;1295;98033;-81
2022/11/13 14:08:54;;;;;;;16.50;9.60;;;;;;;9.98;81.89;101589.08;126293;1317;98029;-79
2022/11/13 14:12:22;;;;;;;16.40;9.40;;;;;;;10.01;81.67;101586.36;124584;1307;99371;-78
2022/11/13 14:15:47;;;;;;;17.00;10.60;;;;;;;9.98;81.57;101589.55;125098;1309;99182;-75
2022/11/13 14:19:13;;;;;;;18.70;11.10;;;;;;;9.96;81.45;101580.29;124526;1302;98044;-76
2022/11/13 14:22:38;;;;;;;22.00;13.70;;;;;;;9.92;81.94;101577.95;124663;1307;99218;-79
2022/11/13 14:26:04;;;;;;;22.30;13.70;;;;;;;9.89;81.90;101573.96;124694;1301;98084;-79
2022/11/13 14:29:35;;;;;;;15.90;9.60;;;;;;;9.85;81.69;101576.17;124694;1308;97995;-77
2022/11/13 14:33:02;;;;;;;17.30;9.80;;;;;;;9.80;81.84;101574.75;124685;1308;98008;-81
2022/11/13 14:36:32;;;;;;;20.90;12.40;;;;;;;9.77;81.65;101569.42;124808;1302;98042;-79
2022/11/13 14:40:00;;;;;;;21.10;12.00;;;;;;;9.77;81.83;101569.10;124698;1302;98648;-78
2022/11/13 14:43:27;;;;;;;20.50;11.80;;;;;;;9.80;81.64;101562.64;124535;1309;219501;-79
2022/11/13 14:47:00;;;;;;;22.90;13.10;;;;;;;9.81;81.70;101560.09;124796;1303;98348;-79
2022/11/13 14:50:27;;;;;;;23.60;12.10;;;;;;;9.79;81.74;101561.34;124815;1309;99085;-77
2022/11/13 14:54:00;;;;;;;22.30;12.80;;;;;;;9.77;82.01;101561.87;124920;1309;98942;-80
2022/11/13 14:57:24;;;;;;;21.50;11.80;;;;;;;9.74;81.85;101559.22;124876;1315;99141;-79
2022/11/13 15:00:49;;;;;;;18.10;10.80;;;;;;;9.65;81.81;101553.83;124828;1303;98141;-78
2022/11/13 15:04:13;;;;;;;20.90;10.30;;;;;;;9.59;81.89;101552.31;124518;1309;98454;-76
2022/11/13 15:07:41;;;;;;;22.70;13.80;;;;;;;9.60;82.03;101550.66;125029;1302;98017;-77
2022/11/13 15:11:06;;;;;;;19.60;12.20;;;;;;;9.64;82.32;101547.54;124831;1302;99122;-77
2022/11/13 15:14:30;;;;;;;16.30;10.20;;;;;;;9.68;82.12;101547.95;124861;1316;98874;-77
2022/11/13 15:17:55;;;;;;;14.50;9.40;;;;;;;9.68;82.01;101552.37;124938;1301;99193;-76
2022/11/13 15:21:20;;;;;;;13.80;8.60;;;;;;;9.65;81.98;101554.77;124870;1302;98015;-77
2022/11/13 15:24:44;;;;;;;17.40;9.90;;;;;;;9.60;81.92;101555.66;125070;1309;98263;-78
2022/11/13 15:28:08;;;;;;;13.30;8.70;;;;;;;9.54;81.89;101557.34;124784;1308;98706;-77
2022/11/13 15:31:35;;;;;;;10.90;6.70;;;;;;;9.48;81.97;101558.67;124888;1308;99075;-78
2022/11/13 15:34:59;;;;;;;9.90;6.20;;;;;;;9.41;81.98;101556.33;124959;1301;99074;-78
2022/11/13 15:38:23;;;;;;;11.10;6.90;;;;;;;9.37;81.75;101558.92;125096;1302;98339;-78
2022/11/13 15:41:47;;;;;;;9.90;6.10;;;;;;;9.37;81.87;101553.04;125126;1300;99141;-77
2022/11/13 15:45:16;;;;;;;8.50;6.00;;;;;;;9.39;81.80;101554.66;125320;1300;99192;-81